Time,TemperatureF,DewpointF,PressureIn,WindDirection,WindDirectionDegrees,WindSpeedMPH,WindSpeedGustMPH,Humidity,HourlyPrecipIn,Conditions,Clouds,dailyrainin,SoftwareType,DateUTC
2013-07-02 00:02:00,68.4,68.0,30.04,East,84,1.0,4.0,99,0.00,,,0.15,weatherlink.com 1.10,2013-07-02 04:02:00,
2013-07-02 00:17:00,68.2,68.0,30.04,NE,41,1.0,3.0,99,0.00,,,0.00,weatherlink.com 1.10,2013-07-02 04:17:00,
2013-07-02 00:32:00,68.1,68.0,30.03,ESE,116,0.0,3.0,99,0.00,,,0.00,weatherlink.com 1.10,2013-07-02 04:32:00,
2013-07-02 00:47:00,68.0,68.0,30.04,South,191,2.0,3.0,99,0.00,,,0.00,weatherlink.com 1.10,2013-07-02 04:47:00,
2013-07-02 01:02:00,68.0,68.0,30.04,ENE,58,0.0,4.0,99,0.00,,,0.00,weatherlink.com 1.10,2013-07-02 05:02:00,
2013-07-02 01:17:00,68.1,68.0,30.04,NNW,342,1.0,2.0,99,0.00,,,0.00,weatherlink.com 1.10,2013-07-02 05:17:00,
2013-07-02 01:32:00,68.2,68.0,30.04,NE,54,1.0,2.0,99,0.00,,,0.00,weatherlink.com 1.10,2013-07-02 05:32:00,
2013-07-02 01:47:00,68.1,68.0,30.04,SW,218,0.0,146.0,99,0.00,,,0.00,weatherlink.com 1.10,2013-07-02 05:47:00,
2013-07-02 02:02:00,68.1,68.0,30.05,ENE,63,1.0,3.0,99,0.00,,,0.00,weatherlink.com 1.10,2013-07-02 06:02:00,
2013-07-02 02:17:00,68.1,68.0,30.05,ENE,72,0.0,3.0,99,0.00,,,0.00,weatherlink.com 1.10,2013-07-02 06:17:00,
2013-07-02 02:32:00,68.0,68.0,30.04,NE,41,0.0,4.0,99,0.00,,,0.00,weatherlink.com 1.10,2013-07-02 06:32:00,
2013-07-02 02:47:00,67.9,67.0,30.04,ENE,58,2.0,4.0,98,0.00,,,0.00,weatherlink.com 1.10,2013-07-02 06:47:00,
2013-07-02 03:02:00,67.9,67.0,30.04,South,173,2.0,8.0,98,0.00,,,0.00,weatherlink.com 1.10,2013-07-02 07:02:00,
2013-07-02 03:17:00,68.0,68.0,30.05,North,358,2.0,5.0,98,0.00,,,0.00,weatherlink.com 1.10,2013-07-02 07:17:00,
2013-07-02 03:32:00,68.1,68.0,30.04,SSW,199,1.0,3.0,98,0.00,,,0.00,weatherlink.com 1.10,2013-07-02 07:32:00,
2013-07-02 03:47:00,68.0,67.0,30.05,NNE,32,3.0,4.0,97,0.00,,,0.00,weatherlink.com 1.10,2013-07-02 07:47:00,
2013-07-02 04:02:00,68.0,67.0,30.05,West,264,0.0,3.0,97,0.00,,,0.00,weatherlink.com 1.10,2013-07-02 08:02:00,
2013-07-02 04:17:00,67.9,67.0,30.05,SE,126,0.0,3.0,97,0.00,,,0.00,weatherlink.com 1.10,2013-07-02 08:17:00,
2013-07-02 04:32:00,67.7,67.0,30.06,West,281,2.0,2.0,97,0.00,,,0.00,weatherlink.com 1.10,2013-07-02 08:32:00,
2013-07-02 04:47:00,67.5,67.0,30.06,ENE,71,0.0,2.0,98,0.00,,,0.00,weatherlink.com 1.10,2013-07-02 08:47:00,
2013-07-02 05:02:00,67.7,67.0,30.07,SE,136,0.0,2.0,97,0.00,,,0.00,weatherlink.com 1.10,2013-07-02 09:02:00,
2013-07-02 05:17:00,67.6,67.0,30.07,SW,228,0.0,2.0,97,0.00,,,0.00,weatherlink.com 1.10,2013-07-02 09:17:00,
2013-07-02 05:32:00,67.8,67.0,30.08,NW,325,2.0,3.0,98,0.00,,,0.00,weatherlink.com 1.10,2013-07-02 09:32:00,
2013-07-02 05:47:00,68.0,67.0,30.07,ENE,68,0.0,3.0,97,0.00,,,0.00,weatherlink.com 1.10,2013-07-02 09:47:00,
2013-07-02 06:02:00,67.9,67.0,30.07,NE,39,0.0,0.0,97,0.00,,,0.00,weatherlink.com 1.10,2013-07-02 10:02:00,
2013-07-02 06:17:00,68.1,68.0,30.09,ENE,74,0.0,0.0,98,0.00,,,0.00,weatherlink.com 1.10,2013-07-02 10:17:00,
2013-07-02 06:32:00,68.4,68.0,30.09,ENE,74,0.0,0.0,98,0.00,,,0.00,weatherlink.com 1.10,2013-07-02 10:32:00,
2013-07-02 06:47:00,68.8,68.0,30.09,East,79,0.0,25.0,97,0.00,,,0.00,weatherlink.com 1.10,2013-07-02 10:47:00,
2013-07-02 07:02:00,69.3,69.0,30.09,ENE,76,0.0,2.0,97,0.00,,,0.00,weatherlink.com 1.10,2013-07-02 11:02:00,
2013-07-02 07:17:00,69.5,69.0,30.09,ESE,115,1.0,5.0,97,0.00,,,0.00,weatherlink.com 1.10,2013-07-02 11:17:00,
2013-07-02 07:32:00,69.6,69.0,30.10,NE,43,2.0,3.0,96,0.00,,,0.00,weatherlink.com 1.10,2013-07-02 11:32:00,
2013-07-02 07:47:00,70.3,69.0,30.10,NW,324,0.0,4.0,95,0.00,,,0.00,weatherlink.com 1.10,2013-07-02 11:47:00,
2013-07-02 08:03:00,70.8,69.0,30.10,NNE,32,1.0,2.0,94,0.00,,,0.00,weatherlink.com 1.10,2013-07-02 12:03:00,
2013-07-02 08:18:00,71.0,69.0,30.10,SE,131,0.0,2.0,94,0.00,,,0.00,weatherlink.com 1.10,2013-07-02 12:18:00,
2013-07-02 08:33:00,71.1,70.0,30.10,East,91,0.0,3.0,95,0.00,,,0.00,weatherlink.com 1.10,2013-07-02 12:33:00,
2013-07-02 08:48:00,70.9,70.0,30.11,ENE,74,0.0,3.0,95,0.00,,,0.00,weatherlink.com 1.10,2013-07-02 12:48:00,
2013-07-02 09:03:00,70.9,70.0,30.11,SE,127,0.0,3.0,95,0.00,,,0.00,weatherlink.com 1.10,2013-07-02 13:03:00,
2013-07-02 09:18:00,71.0,70.0,30.11,ENE,65,0.0,2.0,95,0.00,,,0.00,weatherlink.com 1.10,2013-07-02 13:18:00,
2013-07-02 09:33:00,71.4,70.0,30.11,SSE,162,1.0,2.0,95,0.00,,,0.00,weatherlink.com 1.10,2013-07-02 13:33:00,
2013-07-02 09:48:00,71.5,70.0,30.11,ENE,77,0.0,3.0,94,0.00,,,0.00,weatherlink.com 1.10,2013-07-02 13:48:00,
2013-07-02 10:03:00,71.8,70.0,30.11,SSE,167,0.0,3.0,94,0.00,,,0.00,weatherlink.com 1.10,2013-07-02 14:03:00,
2013-07-02 10:18:00,71.8,70.0,30.11,SSW,200,0.0,2.0,93,0.00,,,0.00,weatherlink.com 1.10,2013-07-02 14:18:00,
2013-07-02 10:33:00,71.6,70.0,30.11,NE,39,1.0,6.0,94,0.00,,,0.00,weatherlink.com 1.10,2013-07-02 14:33:00,
2013-07-02 10:48:00,71.3,70.0,30.11,North,354,1.0,2.0,95,0.00,,,0.00,weatherlink.com 1.10,2013-07-02 14:48:00,
2013-07-02 11:03:00,71.6,70.0,30.11,East,91,2.0,3.0,95,0.00,,,0.00,weatherlink.com 1.10,2013-07-02 15:03:00,
2013-07-02 11:18:00,72.4,71.0,30.11,SSW,197,3.0,3.0,94,0.00,,,0.00,weatherlink.com 1.10,2013-07-02 15:18:00,
2013-07-02 11:33:00,72.9,71.0,30.11,SSE,162,0.0,4.0,92,0.00,,,0.00,weatherlink.com 1.10,2013-07-02 15:33:00,
2013-07-02 11:48:00,72.6,71.0,30.11,SSW,198,0.0,3.0,94,0.00,,,0.00,weatherlink.com 1.10,2013-07-02 15:48:00,
2013-07-02 12:03:00,73.7,72.0,30.11,WSW,239,2.0,3.0,93,0.00,,,0.00,weatherlink.com 1.10,2013-07-02 16:03:00,
2013-07-02 12:18:00,74.6,72.0,30.11,ESE,110,1.0,7.0,91,0.00,,,0.00,weatherlink.com 1.10,2013-07-02 16:18:00,
2013-07-02 12:33:00,74.7,72.0,30.11,ESE,120,2.0,4.0,91,0.00,,,0.00,weatherlink.com 1.10,2013-07-02 16:33:00,
2013-07-02 12:48:00,75.4,72.0,30.11,SW,232,1.0,5.0,90,0.00,,,0.00,weatherlink.com 1.10,2013-07-02 16:48:00,
2013-07-02 13:03:00,75.6,72.0,30.11,WSW,245,2.0,3.0,88,0.00,,,0.00,weatherlink.com 1.10,2013-07-02 17:03:00,
2013-07-02 13:18:00,75.6,71.0,30.11,NE,44,2.0,6.0,86,0.00,,,0.00,weatherlink.com 1.10,2013-07-02 17:18:00,
2013-07-02 13:33:00,77.3,72.0,30.10,East,84,2.0,7.0,84,0.00,,,0.00,weatherlink.com 1.10,2013-07-02 17:33:00,
2013-07-02 13:48:00,76.6,71.0,30.10,East,94,2.0,4.0,82,0.00,,,0.00,weatherlink.com 1.10,2013-07-02 17:48:00,
2013-07-02 14:03:00,71.3,68.0,30.11,East,98,1.0,2.0,89,0.00,,,0.00,weatherlink.com 1.10,2013-07-02 18:03:00,
2013-07-02 14:18:00,72.6,71.0,30.10,WNW,293,1.0,1.0,93,0.00,,,0.00,weatherlink.com 1.10,2013-07-02 18:18:00,
2013-07-02 14:33:00,71.7,68.0,30.10,ENE,77,2.0,3.0,87,0.00,,,0.00,weatherlink.com 1.10,2013-07-02 18:33:00,
2013-07-02 14:48:00,68.9,66.0,30.11,East,101,0.0,2.0,91,0.00,,,0.00,weatherlink.com 1.10,2013-07-02 18:48:00,
2013-07-02 15:03:00,67.2,65.0,30.11,East,91,0.0,3.0,92,0.00,,,0.00,weatherlink.com 1.10,2013-07-02 19:03:00,
2013-07-02 15:18:00,66.3,65.0,30.11,East,99,1.0,2.0,94,0.00,,,0.00,weatherlink.com 1.10,2013-07-02 19:18:00,
2013-07-02 15:33:00,66.5,64.0,30.11,ENE,75,1.0,4.0,92,0.00,,,0.00,weatherlink.com 1.10,2013-07-02 19:33:00,
2013-07-02 15:48:00,66.5,64.0,30.11,East,89,1.0,2.0,92,0.00,,,0.00,weatherlink.com 1.10,2013-07-02 19:48:00,
2013-07-02 16:03:00,66.1,64.0,30.10,ESE,112,2.0,2.0,93,0.00,,,0.00,weatherlink.com 1.10,2013-07-02 20:03:00,
2013-07-02 16:18:00,65.9,64.0,30.11,North,11,0.0,2.0,93,0.00,,,0.00,weatherlink.com 1.10,2013-07-02 20:18:00,
2013-07-02 16:33:00,65.5,64.0,30.10,East,82,4.0,4.0,93,0.00,,,0.00,weatherlink.com 1.10,2013-07-02 20:33:00,
2013-07-02 16:48:00,65.1,63.0,30.11,SE,128,1.0,4.0,93,0.00,,,0.00,weatherlink.com 1.10,2013-07-02 20:48:00,
2013-07-02 17:03:00,64.2,63.0,30.11,ENE,74,0.0,4.0,94,0.00,,,0.00,weatherlink.com 1.10,2013-07-02 21:03:00,
2013-07-02 17:18:00,63.8,62.0,30.12,WNW,290,1.0,2.0,95,0.00,,,0.00,weatherlink.com 1.10,2013-07-02 21:18:00,
2013-07-02 17:34:00,63.0,62.0,30.13,WNW,295,2.0,5.0,97,0.00,,,0.00,weatherlink.com 1.10,2013-07-02 21:34:00,
2013-07-02 17:49:00,62.5,62.0,30.13,WNW,303,0.0,3.0,98,0.00,,,0.00,weatherlink.com 1.10,2013-07-02 21:49:00,
2013-07-02 18:04:00,62.2,62.0,30.13,West,260,0.0,2.0,98,0.00,,,0.00,weatherlink.com 1.10,2013-07-02 22:04:00,
2013-07-02 18:19:00,62.1,62.0,30.12,WNW,297,0.0,3.0,98,0.00,,,0.00,weatherlink.com 1.10,2013-07-02 22:19:00,
2013-07-02 18:34:00,62.1,62.0,30.13,SSE,155,1.0,4.0,98,0.00,,,0.00,weatherlink.com 1.10,2013-07-02 22:34:00,
2013-07-02 18:49:00,61.9,61.0,30.13,WNW,295,2.0,4.0,98,0.00,,,0.00,weatherlink.com 1.10,2013-07-02 22:49:00,
2013-07-02 19:04:00,61.6,61.0,30.13,SSW,212,1.0,3.0,98,0.00,,,0.00,weatherlink.com 1.10,2013-07-02 23:04:00,
2013-07-02 19:19:00,61.5,61.0,30.13,WNW,288,1.0,4.0,99,0.00,,,0.00,weatherlink.com 1.10,2013-07-02 23:19:00,
2013-07-02 19:35:00,61.2,61.0,30.14,East,90,0.0,3.0,99,0.00,,,0.00,weatherlink.com 1.10,2013-07-02 23:35:00,
2013-07-02 19:49:00,61.0,61.0,30.14,SSW,194,0.0,3.0,99,0.01,,,0.01,weatherlink.com 1.10,2013-07-02 23:49:00,
2013-07-02 20:04:00,60.7,61.0,30.16,West,260,2.0,3.0,99,0.02,,,0.02,weatherlink.com 1.10,2013-07-03 00:04:00,
2013-07-02 20:19:00,60.5,60.0,30.15,NE,36,1.0,3.0,99,0.02,,,0.02,weatherlink.com 1.10,2013-07-03 00:19:00,
2013-07-02 20:34:00,60.3,60.0,30.16,SE,132,0.0,2.0,99,0.05,,,0.05,weatherlink.com 1.10,2013-07-03 00:34:00,
2013-07-02 20:49:00,60.1,60.0,30.15,ENE,68,1.0,3.0,99,0.06,,,0.07,weatherlink.com 1.10,2013-07-03 00:49:00,
2013-07-02 21:04:00,60.0,60.0,30.15,SE,138,1.0,2.0,99,0.06,,,0.08,weatherlink.com 1.10,2013-07-03 01:04:00,
2013-07-02 21:19:00,59.6,59.0,30.16,SSW,193,0.0,3.0,99,0.06,,,0.08,weatherlink.com 1.10,2013-07-03 01:19:00,
2013-07-02 21:34:00,59.5,59.0,30.17,East,91,2.0,5.0,99,0.03,,,0.08,weatherlink.com 1.10,2013-07-03 01:34:00,
2013-07-02 22:19:00,59.0,59.0,30.18,SSW,203,1.0,2.0,99,0.23,,,0.31,weatherlink.com 1.10,2013-07-03 02:19:00,
2013-07-02 22:35:00,58.8,59.0,30.17,East,89,2.0,3.0,99,0.61,,,0.69,weatherlink.com 1.10,2013-07-03 02:35:00,
2013-07-02 22:49:00,58.6,58.0,30.17,East,91,3.0,3.0,99,0.51,,,0.71,weatherlink.com 1.10,2013-07-03 02:49:00,
2013-07-02 23:04:00,58.6,58.0,30.16,ESE,118,2.0,3.0,99,0.50,,,0.72,weatherlink.com 1.10,2013-07-03 03:04:00,
2013-07-02 23:19:00,58.5,58.0,30.17,ESE,108,3.0,3.0,99,0.40,,,0.73,weatherlink.com 1.10,2013-07-03 03:19:00,
2013-07-02 23:34:00,58.5,58.0,30.18,East,91,2.0,3.0,99,0.05,,,0.74,weatherlink.com 1.10,2013-07-03 03:34:00,
2013-07-02 23:49:00,58.4,58.0,30.17,East,100,2.0,3.0,99,0.03,,,0.74,weatherlink.com 1.10,2013-07-03 03:49:00,